createdAt,value
2023-03-22T00:00:17.915Z,100345.00
2023-03-22T00:02:46.739Z,100326.16
2023-03-22T00:05:13.473Z,100358.78
2023-03-22T00:07:41.156Z,100356.13
2023-03-22T00:10:08.289Z,100341.59
2023-03-22T00:12:34.933Z,100331.44
2023-03-22T00:15:01.505Z,100331.25
2023-03-22T00:17:28.769Z,100308.88
2023-03-22T00:19:55.480Z,100324.25
2023-03-22T00:22:22.222Z,100290.03
2023-03-22T00:24:48.770Z,100320.72
2023-03-22T00:27:16.198Z,100307.09
2023-03-22T00:29:45.278Z,100283.00
2023-03-22T00:32:12.222Z,100289.50
2023-03-22T00:34:38.918Z,100323.94
2023-03-22T00:37:07.939Z,100268.56
2023-03-22T00:39:39.227Z,100255.66
2023-03-22T00:42:06.764Z,100278.69
2023-03-22T00:44:35.937Z,100253.84
2023-03-22T00:47:02.615Z,100286.00
2023-03-22T00:49:30.463Z,100259.44
2023-03-22T00:51:57.164Z,100289.28
2023-03-22T00:54:23.842Z,100221.69
2023-03-22T00:56:54.034Z,100240.59
2023-03-22T00:59:21.648Z,100221.19
2023-03-22T01:01:50.729Z,100224.09
2023-03-22T01:04:18.330Z,100193.47
2023-03-22T01:06:45.071Z,100245.09
2023-03-22T01:09:14.984Z,100210.19
2023-03-22T01:11:44.770Z,100216.41
2023-03-22T01:14:13.855Z,100218.88
2023-03-22T01:16:40.706Z,100198.56
2023-03-22T01:19:08.039Z,100190.81
2023-03-22T01:21:34.555Z,100205.41
2023-03-22T01:24:01.149Z,100212.44
2023-03-22T01:26:27.788Z,100211.03
2023-03-22T01:28:54.316Z,100227.97
2023-03-22T01:31:21.068Z,100157.16
2023-03-22T01:33:50.200Z,100190.28
2023-03-22T01:36:16.803Z,100188.56
2023-03-22T01:38:43.413Z,100183.81
2023-03-22T01:41:10.351Z,100172.59
2023-03-22T01:43:37.243Z,100166.00
2023-03-22T01:46:04.428Z,100163.28
2023-03-22T01:48:35.645Z,100159.63
2023-03-22T01:51:11.982Z,100186.22
2023-03-22T01:53:48.780Z,100188.34
2023-03-22T01:56:19.513Z,100152.25
2023-03-22T01:58:46.923Z,100158.22
2023-03-22T02:01:13.595Z,100147.81
2023-03-22T02:04:04.349Z,100142.38
2023-03-22T02:06:32.491Z,100159.50
2023-03-22T02:08:59.319Z,100137.16
2023-03-22T02:11:32.672Z,100133.00
2023-03-22T02:14:23.502Z,100159.16
2023-03-22T02:17:00.174Z,100162.69
2023-03-22T02:19:45.629Z,100115.53
2023-03-22T02:22:38.998Z,100107.75
2023-03-22T02:25:53.625Z,100128.19
2023-03-22T02:28:31.202Z,100104.19
2023-03-22T02:31:43.027Z,100114.13
2023-03-22T02:34:25.698Z,100091.91
2023-03-22T02:37:23.221Z,100105.38
2023-03-22T02:40:05.696Z,100078.16
2023-03-22T02:42:51.041Z,100106.41
2023-03-22T02:45:35.569Z,100086.16
2023-03-22T02:48:28.398Z,100074.53
2023-03-22T02:51:00.331Z,100050.59
2023-03-22T02:53:36.741Z,100066.03
2023-03-22T02:56:17.977Z,100043.91
2023-03-22T02:58:46.784Z,100069.06
2023-03-22T03:01:20.446Z,100068.19
2023-03-22T03:03:50.149Z,100064.84
2023-03-22T03:06:23.093Z,100061.16
2023-03-22T03:08:51.024Z,100055.16
2023-03-22T03:11:18.069Z,100060.22
2023-03-22T03:13:47.750Z,100027.91
2023-03-22T03:16:17.521Z,100024.16
2023-03-22T03:19:00.235Z,100053.19
2023-03-22T03:21:45.446Z,100006.41
2023-03-22T03:24:12.055Z,100051.50
2023-03-22T03:26:56.888Z,100050.72
2023-03-22T03:29:26.734Z,100046.41
2023-03-22T03:32:04.496Z,100041.50
2023-03-22T03:34:38.582Z,100032.91
2023-03-22T03:37:15.953Z,100022.59
2023-03-22T03:39:51.764Z,100044.94
2023-03-22T03:42:19.157Z,99997.16
2023-03-22T03:44:45.924Z,100010.81
2023-03-22T03:47:13.270Z,100009.00
2023-03-22T03:49:40.171Z,99970.88
2023-03-22T03:52:06.889Z,100003.78
2023-03-22T03:54:33.872Z,100013.34
2023-03-22T03:57:03.826Z,99984.31
2023-03-22T03:59:30.713Z,100000.38
2023-03-22T04:01:57.403Z,100019.31
2023-03-22T04:04:27.595Z,99981.91
2023-03-22T04:06:56.951Z,99971.72
2023-03-22T04:09:28.700Z,100010.47
2023-03-22T04:11:56.661Z,100013.13
2023-03-22T04:14:25.244Z,99977.56
2023-03-22T04:16:52.741Z,99968.13
2023-03-22T04:19:20.635Z,99994.31
2023-03-22T04:21:48.010Z,99978.28
2023-03-22T04:24:14.924Z,99964.91
2023-03-22T04:26:41.857Z,99966.59
2023-03-22T04:29:08.468Z,99968.31
2023-03-22T04:31:36.919Z,99964.19
2023-03-22T04:34:05.913Z,99992.44
2023-03-22T04:36:36.363Z,99999.13
2023-03-22T04:39:05.896Z,100006.28
2023-03-22T04:41:33.354Z,99970.56
2023-03-22T04:44:03.564Z,100001.19
2023-03-22T04:46:31.653Z,99972.50
2023-03-22T04:48:58.517Z,99967.16
2023-03-22T04:51:26.301Z,100005.53
2023-03-22T04:53:54.074Z,99955.41
2023-03-22T04:56:25.726Z,99972.03
2023-03-22T04:58:52.653Z,99948.81
2023-03-22T05:01:22.312Z,99945.06
2023-03-22T05:03:49.172Z,99955.41
2023-03-22T05:06:16.167Z,100004.81
2023-03-22T05:08:42.958Z,99948.72
2023-03-22T05:11:13.512Z,99965.00
2023-03-22T05:13:41.009Z,99997.88
2023-03-22T05:16:08.987Z,99986.44
2023-03-22T05:18:38.071Z,99996.19
2023-03-22T05:21:06.893Z,99966.44
2023-03-22T05:23:33.482Z,99972.59
2023-03-22T05:26:01.715Z,99985.63
2023-03-22T05:28:28.582Z,99985.53
2023-03-22T05:30:57.095Z,99948.94
2023-03-22T05:33:23.984Z,99995.75
2023-03-22T05:35:51.414Z,99996.53
2023-03-22T05:38:18.155Z,99984.41
2023-03-22T05:40:45.512Z,99980.25
2023-03-22T05:43:12.828Z,99989.50
2023-03-22T05:45:39.660Z,99957.31
2023-03-22T05:48:07.058Z,100006.03
2023-03-22T05:50:34.611Z,100002.88
2023-03-22T05:53:02.209Z,99968.44
2023-03-22T05:55:32.011Z,100004.41
2023-03-22T05:58:02.842Z,99971.19
2023-03-22T06:00:32.152Z,99976.13
2023-03-22T06:03:04.255Z,100013.72
2023-03-22T06:05:31.984Z,99975.69
2023-03-22T06:07:59.440Z,99995.13
2023-03-22T06:10:26.953Z,99983.94
2023-03-22T06:12:54.004Z,99954.84
2023-03-22T06:15:20.855Z,99967.72
2023-03-22T06:17:48.140Z,99946.53
2023-03-22T06:20:15.912Z,99940.28
2023-03-22T06:22:42.804Z,99966.88
2023-03-22T06:25:10.575Z,99971.94
2023-03-22T06:27:37.782Z,99998.34
2023-03-22T06:30:08.075Z,99996.53
2023-03-22T06:32:34.954Z,99946.03
2023-03-22T06:35:01.533Z,99970.91
2023-03-22T06:37:28.748Z,99972.28
2023-03-22T06:39:58.025Z,99910.22
2023-03-22T06:42:27.441Z,99939.84
2023-03-22T06:44:58.460Z,99937.94
2023-03-22T06:47:25.371Z,99898.63
2023-03-22T06:49:54.373Z,99934.19
2023-03-22T06:52:21.280Z,99942.34
2023-03-22T06:54:47.985Z,99947.72
2023-03-22T06:57:14.687Z,99824.31
2023-03-22T06:59:41.642Z,99894.28
2023-03-22T07:02:12.212Z,99903.56
2023-03-22T07:04:42.164Z,99921.28
2023-03-22T07:07:13.139Z,99880.25
2023-03-22T07:09:45.838Z,99909.47
2023-03-22T07:12:12.500Z,99953.19
2023-03-22T07:14:39.623Z,99923.44
2023-03-22T07:17:06.538Z,99985.63
2023-03-22T07:19:37.912Z,99948.03
2023-03-22T07:22:05.748Z,99962.16
2023-03-22T07:24:36.082Z,99928.19
2023-03-22T07:27:37.441Z,99913.00
2023-03-22T07:30:17.535Z,99935.91
2023-03-22T07:32:45.628Z,99956.16
2023-03-22T07:35:21.467Z,99966.47
2023-03-22T07:38:03.777Z,99939.97
2023-03-22T07:40:31.365Z,99989.19
2023-03-22T07:43:00.559Z,99977.44
2023-03-22T07:45:30.367Z,99981.88
2023-03-22T07:47:57.380Z,99963.19
2023-03-22T07:50:56.853Z,99933.53
2023-03-22T07:53:48.737Z,99955.25
2023-03-22T07:56:15.526Z,99943.22
2023-03-22T07:59:11.107Z,99955.03
2023-03-22T08:02:04.469Z,99989.13
2023-03-22T08:04:38.736Z,99910.72
2023-03-22T08:07:37.265Z,99951.63
2023-03-22T08:10:10.248Z,99962.47
2023-03-22T08:13:38.136Z,99941.47
2023-03-22T08:16:23.670Z,99973.16
2023-03-22T08:19:13.018Z,99984.94
2023-03-22T08:21:45.164Z,99959.19
2023-03-22T08:27:01.515Z,99945.84
2023-03-22T08:29:30.521Z,99963.41
2023-03-22T08:32:02.227Z,99925.91
2023-03-22T08:34:33.000Z,99990.56
2023-03-22T08:37:05.764Z,99978.59
2023-03-22T08:40:39.505Z,100004.47
2023-03-22T08:43:26.719Z,99991.25
2023-03-22T08:45:58.637Z,99936.22
2023-03-22T08:48:33.134Z,99968.16
2023-03-22T08:51:49.201Z,99968.47
2023-03-22T08:54:20.909Z,99949.25
2023-03-22T08:57:59.609Z,99975.22
2023-03-22T09:00:39.308Z,99986.72
2023-03-22T09:03:20.421Z,99994.47
2023-03-22T09:06:29.130Z,99985.03
2023-03-22T09:08:56.260Z,99987.97
2023-03-22T09:11:45.947Z,99980.38
2023-03-22T09:14:33.021Z,99978.97
2023-03-22T09:17:05.621Z,99963.69
2023-03-22T09:19:38.803Z,99956.66
2023-03-22T09:22:15.032Z,100005.78
2023-03-22T09:24:41.804Z,99958.78
2023-03-22T09:27:13.095Z,99962.94
2023-03-22T09:29:39.772Z,99960.13
2023-03-22T09:32:11.592Z,99994.81
2023-03-22T09:34:38.240Z,100005.84
2023-03-22T09:37:04.948Z,100029.59
2023-03-22T09:39:31.934Z,100012.34
2023-03-22T09:42:02.454Z,99996.91
2023-03-22T09:44:41.285Z,100026.31
2023-03-22T09:47:24.446Z,99976.53
2023-03-22T09:50:00.771Z,99996.66
2023-03-22T09:52:27.536Z,100034.25
2023-03-22T09:54:54.330Z,99994.88
2023-03-22T09:57:33.369Z,100012.72
2023-03-22T10:00:14.966Z,100002.53
2023-03-22T10:02:46.219Z,99994.78
2023-03-22T10:05:36.149Z,99994.53
2023-03-22T10:08:32.141Z,100038.97
2023-03-22T10:11:00.433Z,99982.66
2023-03-22T10:13:45.506Z,99980.19
2023-03-22T10:16:22.146Z,99978.34
2023-03-22T10:18:52.363Z,100027.72
2023-03-22T10:21:19.933Z,99993.47
2023-03-22T10:23:52.098Z,100027.31
2023-03-22T10:26:24.802Z,100040.06
2023-03-22T10:29:04.009Z,100035.09
2023-03-22T10:31:37.144Z,100050.09
2023-03-22T10:34:08.232Z,99991.06
2023-03-22T10:36:41.205Z,100006.69
2023-03-22T10:39:27.750Z,100043.44
2023-03-22T10:41:58.172Z,100018.78
2023-03-22T10:44:40.726Z,99947.22
2023-03-22T10:47:11.045Z,99993.09
2023-03-22T10:49:53.230Z,99987.09
2023-03-22T10:52:31.519Z,99987.59
2023-03-22T10:55:03.063Z,99998.69
2023-03-22T10:57:31.224Z,99999.31
2023-03-22T10:59:58.351Z,100014.25
2023-03-22T11:02:33.085Z,100006.56
2023-03-22T11:05:09.071Z,99998.50
2023-03-22T11:07:47.309Z,99969.84
2023-03-22T11:10:30.293Z,99992.75
2023-03-22T11:13:16.456Z,100047.22
2023-03-22T11:15:52.490Z,99977.19
2023-03-22T11:18:20.050Z,100006.34
2023-03-22T11:20:58.568Z,99987.69
2023-03-22T11:23:26.599Z,99987.91
2023-03-22T11:25:56.952Z,100040.06
2023-03-22T11:28:37.386Z,100027.41
2023-03-22T11:31:09.249Z,99991.00
2023-03-22T11:33:36.997Z,100003.47
2023-03-22T11:36:17.761Z,99960.16
2023-03-22T11:38:46.324Z,99967.69
2023-03-22T11:41:29.679Z,99956.28
2023-03-22T11:44:00.794Z,99961.28
2023-03-22T11:46:28.885Z,99999.91
2023-03-22T11:49:04.984Z,99985.63
2023-03-22T11:51:45.279Z,99917.91
2023-03-22T11:54:25.990Z,100004.38
2023-03-22T11:57:00.285Z,99988.88
2023-03-22T11:59:30.821Z,99990.25
2023-03-22T12:02:00.496Z,99973.81
2023-03-22T12:04:31.893Z,99923.56
2023-03-22T12:07:03.642Z,99954.44
2023-03-22T12:09:50.566Z,99930.34
2023-03-22T12:12:21.869Z,99979.97
2023-03-22T12:14:57.325Z,100009.19
2023-03-22T12:17:29.223Z,99996.38
2023-03-22T12:20:20.411Z,99966.00
2023-03-22T12:22:54.011Z,99994.19
2023-03-22T12:25:25.725Z,99967.81
2023-03-22T12:27:59.328Z,99970.16
2023-03-22T12:30:43.182Z,99946.59
2023-03-22T12:33:35.018Z,99986.25
2023-03-22T12:36:17.740Z,99952.88
2023-03-22T12:39:00.716Z,99978.38
2023-03-22T12:41:43.015Z,99955.13
2023-03-22T12:44:27.181Z,99960.09
2023-03-22T12:46:58.787Z,99964.66
2023-03-22T12:49:56.035Z,99992.94
2023-03-22T12:52:45.392Z,99928.22
2023-03-22T12:55:26.190Z,99986.19
2023-03-22T12:57:58.081Z,99944.44
2023-03-22T13:00:35.414Z,99992.38
2023-03-22T13:03:18.340Z,99982.44
2023-03-22T13:05:48.751Z,99996.63
2023-03-22T13:08:24.724Z,99973.38
2023-03-22T13:11:02.429Z,99957.16
2023-03-22T13:13:31.391Z,99991.63
2023-03-22T13:16:13.348Z,100003.63
2023-03-22T13:19:05.884Z,99971.66
2023-03-22T13:21:33.565Z,100016.72
2023-03-22T13:24:10.901Z,99999.63
2023-03-22T13:26:47.824Z,100015.59
2023-03-22T13:29:21.520Z,99995.75
2023-03-22T13:31:54.030Z,99935.69
2023-03-22T13:34:31.837Z,99972.63
2023-03-22T13:37:01.610Z,99894.38
2023-03-22T13:39:39.243Z,99961.34
2023-03-22T13:42:17.124Z,99918.50
2023-03-22T13:44:46.057Z,99932.22
2023-03-22T13:47:33.440Z,99936.94
2023-03-22T13:50:18.794Z,99893.78
2023-03-22T13:52:59.145Z,99890.66
2023-03-22T13:55:43.141Z,99877.22
2023-03-22T13:58:36.203Z,99887.53
2023-03-22T14:01:50.352Z,99908.78
2023-03-22T14:04:24.845Z,99908.16
2023-03-22T14:07:07.368Z,99851.38
2023-03-22T14:09:46.730Z,99889.53
2023-03-22T14:12:19.780Z,99908.31
2023-03-22T14:14:52.088Z,99876.19
2023-03-22T14:17:24.805Z,99895.47
2023-03-22T14:19:54.176Z,99865.50
